Time;durP1;ratioP1;P1;durP2;ratioP2;P2;SDS_P1;SDS_P2;PMS_P1;PMS_P2;Temp;Humidity;BMP_temperature;BMP_pressure;BME280_temperature;BME280_humidity;BME280_pressure;Samples;Min_cycle;Max_cycle;Signal;HPM_P1;HPM_P2
2022/08/09 00:00:19;;;;;;;;;;;;;;;21.24;64.72;100366.88;4428577;32;33536;-80
2022/08/09 00:02:48;;;;;;;;;;;;;;;21.38;64.62;100360.44;4430841;32;34286;-80
2022/08/09 00:05:19;;;;;;;;;;;;;;;21.52;64.43;100365.56;4424107;32;32593;-80
2022/08/09 00:08:09;;;;;;;;;;;;;;;21.53;64.45;100369.09;4438259;32;34133;-83
2022/08/09 00:10:57;;;;;;;;;;;;;;;21.39;65.01;100372.87;4436476;32;33672;-80
2022/08/09 00:13:25;;;;;;;;;;;;;;;21.43;64.73;100368.97;4410777;32;33381;-80
2022/08/09 00:15:54;;;;;;;;;;;;;;;21.46;64.59;100364.22;4425484;32;32963;-80
2022/08/09 00:18:27;;;;;;;;;;;;;;;21.43;65.02;100363.59;4425714;32;34895;-80
2022/08/09 00:20:55;;;;;;;;;;;;;;;21.48;64.91;100358.72;4425460;32;32855;-83
2022/08/09 00:23:24;;;;;;;;;;;;;;;21.48;65.15;100367.62;4411256;32;33227;-83
2022/08/09 00:26:12;;;;;;;;;;;;;;;21.67;64.43;100360.78;4427722;32;33342;-81
2022/08/09 00:28:40;;;;;;;;;;;;;;;21.30;65.76;100352.09;4405617;32;187952;-80
2022/08/09 00:31:20;;;;;;;;;;;;;;;21.28;65.92;100354.06;4426243;32;35110;-81
2022/08/09 00:34:08;;;;;;;;;;;;;;;21.45;65.44;100361.63;4438099;32;34174;-81
2022/08/09 00:36:37;;;;;;;;;;;;;;;21.28;65.61;100364.81;4424283;32;33288;-80
2022/08/09 00:39:08;;;;;;;;;;;;;;;21.45;64.98;100361.63;4424987;32;34039;-80
2022/08/09 00:41:56;;;;;;;;;;;;;;;21.16;65.76;100367.47;4427293;32;34067;-80
2022/08/09 00:44:43;;;;;;;;;;;;;;;21.41;64.74;100358.38;4427523;32;33172;-80
2022/08/09 00:47:14;;;;;;;;;;;;;;;21.14;65.80;100358.69;4437678;32;32379;-80
2022/08/09 00:49:45;;;;;;;;;;;;;;;21.38;64.87;100363.97;4424043;32;33625;-80
2022/08/09 00:52:21;;;;;;;;;;;;;;;21.20;65.43;100350.13;4436828;32;34190;-80
2022/08/09 00:55:01;;;;;;;;;;;;;;;21.46;64.47;100358.84;4424252;32;34347;-80
2022/08/09 00:57:30;;;;;;;;;;;;;;;21.49;64.29;100352.34;4424574;32;32457;-80
2022/08/09 01:00:07;;;;;;;;;;;;;;;21.37;64.77;100354.22;4427095;32;34679;-80
2022/08/09 01:02:50;;;;;;;;;;;;;;;21.47;64.43;100343.56;4431742;32;33612;-83
2022/08/09 01:05:38;;;;;;;;;;;;;;;21.57;64.21;100341.00;4411801;32;34002;-80
2022/08/09 01:08:42;;;;;;;;;;;;;;;21.44;64.53;100338.44;4426168;32;33628;-80
2022/08/09 01:11:31;;;;;;;;;;;;;;;21.54;64.23;100349.31;4418874;32;34914;-80
2022/08/09 01:14:02;;;;;;;;;;;;;;;21.50;64.55;100354.06;4416223;32;33349;-80
2022/08/09 01:16:38;;;;;;;;;;;;;;;21.48;64.58;100353.34;4424282;32;32676;-81
2022/08/09 01:19:26;;;;;;;;;;;;;;;21.39;64.87;100351.38;4423775;32;33828;-81
2022/08/09 01:22:24;;;;;;;;;;;;;;;21.40;64.64;100353.09;4437775;32;34059;-80
2022/08/09 01:24:53;;;;;;;;;;;;;;;21.05;65.50;100353.19;4424652;32;33575;-80
2022/08/09 01:27:23;;;;;;;;;;;;;;;21.04;65.43;100348.78;4429099;32;34285;-81
2022/08/09 01:29:52;;;;;;;;;;;;;;;21.08;65.37;100343.06;4424021;32;33510;-80
2022/08/09 01:32:26;;;;;;;;;;;;;;;21.20;64.81;100331.34;4425121;32;32817;-80
2022/08/09 01:35:01;;;;;;;;;;;;;;;21.19;64.74;100334.16;4436849;32;34080;-80
2022/08/09 01:37:44;;;;;;;;;;;;;;;21.05;65.19;100339.75;4425906;32;34567;-81
2022/08/09 01:40:32;;;;;;;;;;;;;;;21.18;64.80;100335.97;4425949;32;32120;-83
2022/08/09 01:43:02;;;;;;;;;;;;;;;21.17;64.77;100345.03;4410210;32;32651;-82
2022/08/09 01:45:30;;;;;;;;;;;;;;;21.29;64.40;100336.97;4424293;32;33980;-83
2022/08/09 01:47:58;;;;;;;;;;;;;;;21.17;65.05;100336.97;4413099;32;35452;-83
2022/08/09 01:50:32;;;;;;;;;;;;;;;21.21;64.72;100337.56;4415237;32;32950;-82
2022/08/09 01:53:03;;;;;;;;;;;;;;;21.32;64.49;100334.06;4413663;32;33785;-83
2022/08/09 01:55:46;;;;;;;;;;;;;;;21.17;65.01;100331.59;4427599;32;33953;-83
2022/08/09 01:58:14;;;;;;;;;;;;;;;21.25;64.81;100327.44;4425797;32;34990;-82
2022/08/09 02:00:42;;;;;;;;;;;;;;;21.05;65.32;100327.19;4425895;32;32949;-82
2022/08/09 02:03:16;;;;;;;;;;;;;;;21.19;64.87;100324.25;4415317;32;34837;-82
2022/08/09 02:05:44;;;;;;;;;;;;;;;21.25;64.58;100328.28;4417846;32;34956;-82
2022/08/09 02:08:30;;;;;;;;;;;;;;;21.17;64.72;100320.84;4428229;32;34415;-82
2022/08/09 02:11:18;;;;;;;;;;;;;;;21.07;65.04;100319.00;4434365;32;33000;-82
2022/08/09 02:13:45;;;;;;;;;;;;;;;20.92;65.31;100321.06;4423607;32;34842;-82
2022/08/09 02:16:34;;;;;;;;;;;;;;;21.01;65.12;100314.97;4415935;32;34079;-82
2022/08/09 02:19:22;;;;;;;;;;;;;;;20.93;65.38;100312.03;4428519;32;34049;-83
2022/08/09 02:21:51;;;;;;;;;;;;;;;21.00;65.17;100312.41;4420079;32;33445;-82
2022/08/09 02:24:23;;;;;;;;;;;;;;;21.16;64.55;100307.53;4423470;32;32850;-82
2022/08/09 02:26:55;;;;;;;;;;;;;;;21.28;64.01;100308.41;4426478;32;34158;-82
2022/08/09 02:29:26;;;;;;;;;;;;;;;21.10;64.58;100303.50;4413120;32;33130;-83
2022/08/09 02:31:58;;;;;;;;;;;;;;;21.09;64.73;100300.94;4426296;32;33197;-82
2022/08/09 02:34:27;;;;;;;;;;;;;;;20.93;65.03;100301.28;4416101;32;34492;-83
2022/08/09 02:37:16;;;;;;;;;;;;;;;21.08;64.47;100299.22;4428195;32;34001;-84
2022/08/09 02:39:46;;;;;;;;;;;;;;;20.95;64.79;100300.22;4420488;32;34170;-82
2022/08/09 02:42:29;;;;;;;;;;;;;;;20.86;65.06;100297.41;4411257;32;31928;-83
2022/08/09 02:45:04;;;;;;;;;;;;;;;21.05;64.44;100310.22;4424865;32;34521;-83
2022/08/09 02:47:33;;;;;;;;;;;;;;;21.12;64.15;100306.06;4435814;32;33973;-82
2022/08/09 02:50:32;;;;;;;;;;;;;;;20.97;64.40;100302.75;4437440;32;33813;-82
2022/08/09 02:53:01;;;;;;;;;;;;;;;21.06;64.05;100296.66;4421863;32;32983;-82
2022/08/09 02:55:30;;;;;;;;;;;;;;;20.91;64.37;100303.25;4432291;32;33803;-83
2022/08/09 02:58:17;;;;;;;;;;;;;;;20.89;64.33;100307.91;4422507;32;33202;-82
2022/08/09 03:01:07;;;;;;;;;;;;;;;20.70;64.81;100312.03;4424852;32;34804;-82
2022/08/09 03:03:42;;;;;;;;;;;;;;;20.97;63.95;100314.34;4423719;32;32217;-83
2022/08/09 03:06:31;;;;;;;;;;;;;;;20.83;64.25;100306.53;4427284;32;33825;-83
2022/08/09 03:08:59;;;;;;;;;;;;;;;20.60;64.88;100311.00;4433267;32;35051;-82
2022/08/09 03:11:27;;;;;;;;;;;;;;;20.73;64.74;100316.28;4425574;32;34347;-82
2022/08/09 03:14:15;;;;;;;;;;;;;;;20.75;64.63;100314.34;4433496;32;33678;-82
2022/08/09 03:16:43;;;;;;;;;;;;;;;20.81;64.27;100318.37;4425086;32;34394;-82
2022/08/09 03:19:14;;;;;;;;;;;;;;;20.68;64.80;100313.97;4413169;32;34968;-82
2022/08/09 03:22:02;;;;;;;;;;;;;;;20.73;64.48;100315.44;4427520;32;34180;-83
2022/08/09 03:24:29;;;;;;;;;;;;;;;20.52;64.89;100318.81;4424989;32;32862;-83
2022/08/09 03:27:09;;;;;;;;;;;;;;;20.32;65.68;100322.09;4427015;32;34209;-82
2022/08/09 03:29:37;;;;;;;;;;;;;;;20.26;66.11;100325.25;4425325;32;33840;-82
2022/08/09 03:32:26;;;;;;;;;;;;;;;20.57;64.93;100313.94;4436392;32;33859;-82
2022/08/09 03:34:55;;;;;;;;;;;;;;;20.58;65.02;100323.69;4436829;32;32946;-82
2022/08/09 03:37:25;;;;;;;;;;;;;;;20.64;64.69;100317.84;4424148;32;33720;-82
2022/08/09 03:40:14;;;;;;;;;;;;;;;20.46;65.34;100324.59;4436007;32;34947;-82
2022/08/09 03:42:45;;;;;;;;;;;;;;;20.49;65.46;100326.22;4436248;32;33555;-82
2022/08/09 03:45:13;;;;;;;;;;;;;;;20.50;65.22;100325.25;4429468;32;33396;-82
2022/08/09 03:47:42;;;;;;;;;;;;;;;20.54;64.93;100322.22;4429603;32;33861;-82
2022/08/09 03:50:13;;;;;;;;;;;;;;;20.33;65.40;100323.84;4423263;32;34811;-83
2022/08/09 03:52:54;;;;;;;;;;;;;;;20.63;64.52;100316.13;4436442;32;33767;-82
2022/08/09 03:55:24;;;;;;;;;;;;;;;20.67;64.50;100316.75;4433635;32;33724;-82
2022/08/09 03:57:55;;;;;;;;;;;;;;;20.73;64.17;100323.47;4417794;32;32643;-82
2022/08/09 04:00:38;;;;;;;;;;;;;;;20.59;64.47;100313.81;4426485;32;33926;-82
2022/08/09 04:03:07;;;;;;;;;;;;;;;20.51;64.80;100311.75;4434403;32;34066;-82
2022/08/09 04:05:41;;;;;;;;;;;;;;;20.72;64.11;100314.56;4418796;32;33658;-82
2022/08/09 04:08:16;;;;;;;;;;;;;;;20.76;63.96;100317.88;4409922;32;33987;-82
2022/08/09 04:10:44;;;;;;;;;;;;;;;20.55;64.64;100323.91;4426469;32;33661;-82
2022/08/09 04:13:20;;;;;;;;;;;;;;;20.40;65.20;100325.06;4418593;32;33768;-83
2022/08/09 04:16:08;;;;;;;;;;;;;;;20.51;65.14;100327.84;4420297;32;33398;-83
2022/08/09 04:18:47;;;;;;;;;;;;;;;20.60;64.86;100321.72;4418256;32;34315;-82
2022/08/09 04:21:17;;;;;;;;;;;;;;;20.64;65.01;100325.91;4421181;32;32810;-82
2022/08/09 04:23:45;;;;;;;;;;;;;;;20.65;64.96;100330.31;4415784;32;33513;-82
2022/08/09 04:26:24;;;;;;;;;;;;;;;20.73;64.79;100329.69;4426389;32;32359;-82
2022/08/09 04:29:04;;;;;;;;;;;;;;;20.89;64.46;100332.91;4416813;32;33990;-82
2022/08/09 04:31:41;;;;;;;;;;;;;;;20.97;64.30;100329.59;4413279;32;33273;-82
2022/08/09 04:34:13;;;;;;;;;;;;;;;20.88;64.80;100343.75;4425960;32;34493;-82
2022/08/09 04:37:00;;;;;;;;;;;;;;;20.98;64.86;100342.06;4410550;32;32849;-82
2022/08/09 04:39:28;;;;;;;;;;;;;;;21.05;65.10;100353.19;4418951;32;33414;-82
2022/08/09 04:41:58;;;;;;;;;;;;;;;21.08;65.02;100343.06;4433231;32;34191;-82
2022/08/09 04:44:27;;;;;;;;;;;;;;;21.26;64.37;100347.94;4429430;32;34399;-82
2022/08/09 04:46:55;;;;;;;;;;;;;;;21.36;64.06;100351.63;4422184;32;33160;-82
2022/08/09 04:49:36;;;;;;;;;;;;;;;21.48;63.39;100354.19;4423424;32;33587;-82
2022/08/09 04:52:23;;;;;;;;;;;;;;;21.39;63.70;100349.56;4425563;32;33816;-82
2022/08/09 04:54:58;;;;;;;;;;;;;;;21.28;64.26;100354.91;4427848;32;33499;-82
2022/08/09 04:57:26;;;;;;;;;;;;;;;21.50;63.93;100350.53;4440371;32;32403;-81
2022/08/09 05:00:14;;;;;;;;;;;;;;;21.40;63.13;100345.03;4429795;32;33280;-81
2022/08/09 05:02:44;;;;;;;;;;;;;;;21.51;62.45;100344.16;4452874;32;34962;-81
2022/08/09 05:05:20;;;;;;;;;;;;;;;21.73;62.33;100349.50;4441660;32;34882;-81
2022/08/09 05:08:08;;;;;;;;;;;;;;;21.90;61.85;100356.22;4443408;32;33704;-81
2022/08/09 05:10:41;;;;;;;;;;;;;;;22.08;61.42;100346.63;4440825;32;34633;-81
2022/08/09 05:13:09;;;;;;;;;;;;;;;22.12;61.28;100349.94;4427352;32;33085;-81
2022/08/09 05:15:38;;;;;;;;;;;;;;;21.76;62.55;100353.81;4440395;32;34147;-81
2022/08/09 05:18:19;;;;;;;;;;;;;;;21.94;61.53;100353.16;4429195;32;32543;-81
2022/08/09 05:21:08;;;;;;;;;;;;;;;22.00;61.90;100357.16;4428648;32;32329;-81
2022/08/09 05:23:51;;;;;;;;;;;;;;;22.39;59.96;100349.47;4438685;32;33232;-81
2022/08/09 05:26:30;;;;;;;;;;;;;;;22.59;59.26;100353.16;4439199;32;32711;-81
2022/08/09 05:29:20;;;;;;;;;;;;;;;22.06;61.52;100350.41;4442532;32;32511;-81
2022/08/09 05:32:01;;;;;;;;;;;;;;;21.99;61.63;100355.47;4424990;32;33405;-82
2022/08/09 05:34:32;;;;;;;;;;;;;;;22.26;60.36;100354.16;4441127;32;35019;-81
2022/08/09 05:37:02;;;;;;;;;;;;;;;22.03;60.99;100364.97;4427709;32;33948;-81
2022/08/09 05:39:36;;;;;;;;;;;;;;;22.28;60.42;100363.81;4440840;32;33169;-81
2022/08/09 05:42:18;;;;;;;;;;;;;;;22.50;59.94;100360.16;4428023;32;33340;-81
2022/08/09 05:44:50;;;;;;;;;;;;;;;22.61;59.45;100357.44;4452839;32;34007;-81
2022/08/09 05:47:21;;;;;;;;;;;;;;;22.70;58.66;100362.03;4436019;32;34300;-81
2022/08/09 05:49:51;;;;;;;;;;;;;;;22.53;60.11;100359.06;4424404;32;33564;-81
2022/08/09 05:52:41;;;;;;;;;;;;;;;22.62;59.98;100356.44;4426679;32;33024;-81
2022/08/09 05:55:12;;;;;;;;;;;;;;;22.59;59.96;100359.37;4424789;32;34282;-81
2022/08/09 05:57:55;;;;;;;;;;;;;;;22.84;59.60;100351.94;4407893;32;33454;-81
2022/08/09 06:00:28;;;;;;;;;;;;;;;23.11;58.10;100349.53;4424339;32;32033;-81
2022/08/09 06:02:58;;;;;;;;;;;;;;;22.86;58.86;100350.78;4426407;32;34154;-81
2022/08/09 06:05:26;;;;;;;;;;;;;;;22.99;58.48;100353.31;4421503;32;33830;-81
2022/08/09 06:08:14;;;;;;;;;;;;;;;23.52;57.83;100351.28;4422821;32;34887;-81
2022/08/09 06:10:55;;;;;;;;;;;;;;;23.62;57.19;100350.47;4414672;32;32516;-82
2022/08/09 06:13:26;;;;;;;;;;;;;;;23.59;57.52;100348.03;4423708;32;34060;-81
2022/08/09 06:16:03;;;;;;;;;;;;;;;23.80;56.65;100350.69;4434681;32;35094;-81
2022/08/09 06:18:36;;;;;;;;;;;;;;;23.50;57.78;100355.13;4434853;32;33587;-81
2022/08/09 06:21:11;;;;;;;;;;;;;;;24.19;54.83;100344.34;4429837;32;33730;-81
2022/08/09 06:23:42;;;;;;;;;;;;;;;24.25;54.49;100343.75;4430107;32;32566;-82
2022/08/09 06:26:25;;;;;;;;;;;;;;;24.03;55.16;100346.75;4421091;32;34421;-81
2022/08/09 06:28:55;;;;;;;;;;;;;;;23.98;54.14;100347.19;4424251;32;33295;-81
2022/08/09 06:31:28;;;;;;;;;;;;;;;24.08;53.65;100338.25;4420775;32;31757;-82
2022/08/09 06:34:07;;;;;;;;;;;;;;;24.41;53.61;100342.41;4424134;32;32644;-81
2022/08/09 06:36:38;;;;;;;;;;;;;;;24.28;53.84;100348.03;4434908;32;33336;-81
2022/08/09 06:39:12;;;;;;;;;;;;;;;24.73;53.46;100344.75;4436734;32;34392;-81
2022/08/09 06:41:49;;;;;;;;;;;;;;;24.74;52.97;100347.34;4434754;32;33283;-81
2022/08/09 06:44:41;;;;;;;;;;;;;;;25.07;52.73;100345.16;4439104;32;33944;-81
2022/08/09 06:47:10;;;;;;;;;;;;;;;24.88;53.65;100348.72;4425137;32;34109;-82
2022/08/09 06:49:45;;;;;;;;;;;;;;;25.23;52.51;100349.94;4437100;32;33876;-81
2022/08/09 06:52:34;;;;;;;;;;;;;;;25.36;51.21;100346.91;4427572;32;33056;-81
2022/08/09 06:55:06;;;;;;;;;;;;;;;25.48;52.67;100345.69;4424279;32;33499;-82
2022/08/09 06:57:39;;;;;;;;;;;;;;;25.36;50.42;100346.91;4426401;32;32933;-81
2022/08/09 07:00:28;;;;;;;;;;;;;;;25.70;50.17;100356.13;4425656;32;33104;-81
2022/08/09 07:03:16;;;;;;;;;;;;;;;25.72;51.55;100354.09;4423617;32;32406;-82
2022/08/09 07:05:44;;;;;;;;;;;;;;;26.14;50.16;100352.72;4438433;32;34268;-81
2022/08/09 07:11:08;;;;;;;;;;;;;;;26.17;47.22;100355.97;4429641;32;34196;-81
2022/08/09 07:13:39;;;;;;;;;;;;;;;26.34;47.27;100353.41;4425940;32;32786;-81
2022/08/09 07:16:28;;;;;;;;;;;;;;;26.34;46.56;100348.00;4415175;32;32924;-81
2022/08/09 07:19:15;;;;;;;;;;;;;;;26.47;46.45;100348.50;4423814;32;33155;-81
2022/08/09 07:21:51;;;;;;;;;;;;;;;26.75;45.74;100347.38;4435477;32;33329;-81
2022/08/09 07:24:29;;;;;;;;;;;;;;;26.40;45.70;100355.53;4426747;32;32110;-81
2022/08/09 07:27:08;;;;;;;;;;;;;;;26.34;46.15;100353.41;4424503;32;33144;-81
2022/08/09 07:29:56;;;;;;;;;;;;;;;26.75;46.19;100347.38;4434179;32;34077;-81
2022/08/09 07:32:27;;;;;;;;;;;;;;;27.03;44.44;100344.50;4410390;32;33088;-81
2022/08/09 07:34:58;;;;;;;;;;;;;;;27.15;44.09;100337.81;4406854;32;32278;-81
2022/08/09 07:37:37;;;;;;;;;;;;;;;27.39;43.88;100338.97;4420921;32;34897;-81
2022/08/09 07:40:15;;;;;;;;;;;;;;;27.49;44.12;100337.00;4422021;32;33490;-81
2022/08/09 07:42:49;;;;;;;;;;;;;;;27.55;42.75;100339.06;4425124;32;33318;-82
2022/08/09 07:45:25;;;;;;;;;;;;;;;27.62;43.30;100339.22;4430077;32;34121;-81
2022/08/09 07:48:08;;;;;;;;;;;;;;;27.75;42.41;100345.94;4429661;32;33122;-81
2022/08/09 07:50:55;;;;;;;;;;;;;;;27.54;44.75;100348.22;4432130;32;34254;-81
2022/08/09 07:53:43;;;;;;;;;;;;;;;27.21;44.32;100345.34;4415244;32;32670;-81
2022/08/09 07:56:32;;;;;;;;;;;;;;;27.64;44.16;100343.50;4417399;32;33688;-81
2022/08/09 07:59:01;;;;;;;;;;;;;;;26.85;44.33;100347.28;4425790;32;34253;-83
2022/08/09 08:01:40;;;;;;;;;;;;;;;27.85;44.01;100339.50;4409919;32;34124;-81
2022/08/09 08:04:09;;;;;;;;;;;;;;;27.76;42.27;100344.91;4425698;32;34085;-81
2022/08/09 08:06:37;;;;;;;;;;;;;;;27.73;42.41;100352.56;4438361;32;34029;-81
2022/08/09 08:09:24;;;;;;;;;;;;;;;28.23;43.74;100344.34;4427720;32;33924;-81
2022/08/09 08:12:08;;;;;;;;;;;;;;;28.57;39.75;100335.22;4422913;32;32971;-81
2022/08/09 08:14:57;;;;;;;;;;;;;;;28.41;41.06;100343.38;4426628;32;32811;-81
2022/08/09 08:17:27;;;;;;;;;;;;;;;28.53;39.54;100337.44;4431184;32;33144;-81
2022/08/09 08:20:19;;;;;;;;;;;;;;;27.72;43.45;100343.53;4435109;32;34104;-81
2022/08/09 08:23:04;;;;;;;;;;;;;;;27.73;41.39;100338.97;4423034;32;32758;-81
2022/08/09 08:25:50;;;;;;;;;;;;;;;28.38;41.18;100335.56;4426752;32;34674;-81
2022/08/09 08:28:36;;;;;;;;;;;;;;;28.56;40.15;100334.38;4431853;32;33763;-81
2022/08/09 08:31:04;;;;;;;;;;;;;;;28.76;40.95;100329.41;4427413;32;33903;-81
2022/08/09 08:33:44;;;;;;;;;;;;;;;28.79;40.49;100328.25;4419690;32;33350;-81
2022/08/09 08:36:24;;;;;;;;;;;;;;;29.52;38.36;100324.47;4426589;32;33781;-81
2022/08/09 08:38:57;;;;;;;;;;;;;;;29.46;40.29;100317.03;4420989;32;32606;-81
2022/08/09 08:41:28;;;;;;;;;;;;;;;29.18;39.19;100317.47;4436947;32;33263;-83
2022/08/09 08:44:20;;;;;;;;;;;;;;;28.66;41.13;100328.75;4415146;32;33527;-81
2022/08/09 08:47:01;;;;;;;;;;;;;;;29.32;38.09;100318.59;4418417;32;34094;-81
2022/08/09 08:49:39;;;;;;;;;;;;;;;29.32;40.04;100324.06;4426757;32;33270;-82
2022/08/09 08:52:18;;;;;;;;;;;;;;;29.38;40.14;100325.22;4423132;32;34306;-81
2022/08/09 08:55:07;;;;;;;;;;;;;;;29.23;37.73;100320.50;4437583;32;33863;-81
2022/08/09 08:57:45;;;;;;;;;;;;;;;29.29;38.27;100329.81;4415162;32;33376;-82
2022/08/09 09:00:26;;;;;;;;;;;;;;;29.45;38.02;100315.34;4423306;32;33165;-81
2022/08/09 09:03:05;;;;;;;;;;;;;;;28.99;38.03;100317.88;4413845;32;32175;-81
2022/08/09 09:05:48;;;;;;;;;;;;;;;29.65;38.66;100319.34;4436929;32;32876;-81
2022/08/09 09:08:35;;;;;;;;;;;;;;;29.83;37.71;100325.37;4415476;32;32999;-81
2022/08/09 09:11:13;;;;;;;;;;;;;;;29.77;38.05;100328.81;4413040;32;32048;-81
2022/08/09 09:13:48;;;;;;;;;;;;;;;30.23;37.18;100312.53;4426358;32;33267;-81
2022/08/09 09:16:27;;;;;;;;;;;;;;;30.05;36.27;100317.38;4413578;32;33855;-81
2022/08/09 09:18:59;;;;;;;;;;;;;;;30.40;36.49;100313.25;4428871;32;33294;-82
2022/08/09 09:21:58;;;;;;;;;;;;;;;30.36;35.67;100311.94;4425615;32;33383;-81
2022/08/09 09:24:33;;;;;;;;;;;;;;;30.03;40.10;100319.47;4439085;32;34850;-81
2022/08/09 09:27:01;;;;;;;;;;;;;;;30.32;37.57;100316.03;4424852;32;33968;-81
2022/08/09 09:29:31;;;;;;;;;;;;;;;30.66;35.97;100314.72;4424738;32;34040;-81
2022/08/09 09:32:19;;;;;;;;;;;;;;;30.92;35.69;100317.91;4414334;32;32217;-82
2022/08/09 09:35:10;;;;;;;;;;;;;;;30.71;35.06;100315.88;4438523;32;35061;-81
2022/08/09 09:37:52;;;;;;;;;;;;;;;31.02;34.68;100304.84;4426405;32;33949;-81
2022/08/09 09:40:20;;;;;;;;;;;;;;;30.28;37.87;100317.44;4425073;32;33719;-81
2022/08/09 09:42:55;;;;;;;;;;;;;;;30.32;36.35;100311.44;4424854;32;32423;-81
2022/08/09 09:45:23;;;;;;;;;;;;;;;30.42;35.90;100313.91;4424787;32;32672;-81
2022/08/09 09:47:55;;;;;;;;;;;;;;;30.41;35.71;100311.37;4415564;32;34648;-82
2022/08/09 09:50:39;;;;;;;;;;;;;;;30.57;34.87;100313.94;4441144;32;34957;-81
2022/08/09 09:53:26;;;;;;;;;;;;;;;31.09;35.97;100307.66;4429677;32;32855;-83
2022/08/09 09:56:15;;;;;;;;;;;;;;;30.86;34.16;100313.22;4433771;32;34294;-81
2022/08/09 09:58:59;;;;;;;;;;;;;;;31.64;34.48;100309.06;4429790;32;33259;-82
2022/08/09 10:01:27;;;;;;;;;;;;;;;31.97;33.60;100311.34;4440170;32;34889;-82
2022/08/09 10:04:13;;;;;;;;;;;;;;;31.86;36.56;100308.09;4441355;32;32623;-81
2022/08/09 10:06:51;;;;;;;;;;;;;;;31.73;33.54;100299.72;4429518;32;33782;-81
2022/08/09 10:12:04;;;;;;;;;;;;;;;31.99;34.26;100298.34;4436770;32;35148;-81
2022/08/09 10:15:03;;;;;;;;;;;;;;;31.70;34.13;100296.50;4431040;32;33713;-81
2022/08/09 10:17:36;;;;;;;;;;;;;;;31.70;32.86;100294.63;4441985;32;34445;-81
2022/08/09 10:20:25;;;;;;;;;;;;;;;31.87;33.24;100290.66;4441130;32;33956;-81
2022/08/09 10:23:13;;;;;;;;;;;;;;;32.33;32.30;100283.94;4443966;32;34555;-82
2022/08/09 10:25:45;;;;;;;;;;;;;;;32.18;31.88;100286.75;4441594;32;33336;-81
2022/08/09 10:28:34;;;;;;;;;;;;;;;32.78;32.65;100277.19;4444306;32;34269;-82
2022/08/09 10:31:03;;;;;;;;;;;;;;;32.98;33.33;100279.25;4429020;32;33264;-82
2022/08/09 10:33:52;;;;;;;;;;;;;;;32.03;32.77;100272.31;4430903;32;32939;-82
2022/08/09 10:36:45;;;;;;;;;;;;;;;32.76;32.47;100276.56;4444075;32;33411;-82
2022/08/09 10:39:16;;;;;;;;;;;;;;;32.92;31.49;100271.84;4441312;32;33911;-81
2022/08/09 10:41:46;;;;;;;;;;;;;;;32.51;31.64;100278.88;4429119;32;32762;-81
2022/08/09 10:44:20;;;;;;;;;;;;;;;31.83;33.86;100278.44;4442116;32;34241;-81
2022/08/09 10:46:56;;;;;;;;;;;;;;;32.26;34.13;100267.50;4441340;32;33077;-81
2022/08/09 10:49:32;;;;;;;;;;;;;;;32.32;32.37;100268.59;4455330;32;34887;-81
2022/08/09 10:52:38;;;;;;;;;;;;;;;32.26;31.96;100267.50;4421710;32;32956;-81
2022/08/09 10:55:18;;;;;;;;;;;;;;;32.44;32.46;100268.94;4450263;32;34272;-82
2022/08/09 10:57:47;;;;;;;;;;;;;;;32.35;31.96;100262.75;4426322;32;32386;-81
2022/08/09 11:00:28;;;;;;;;;;;;;;;32.04;32.72;100276.75;4441235;32;33204;-82
2022/08/09 11:02:58;;;;;;;;;;;;;;;31.63;33.45;100271.88;4453142;32;34594;-81
2022/08/09 11:06:13;;;;;;;;;;;;;;;31.98;31.50;100263.87;4443282;32;33018;-81
2022/08/09 11:08:49;;;;;;;;;;;;;;;31.48;35.11;100271.06;4440049;32;33305;-81
2022/08/09 11:11:22;;;;;;;;;;;;;;;31.25;34.50;100263.81;4438986;32;33355;-82
2022/08/09 11:14:16;;;;;;;;;;;;;;;31.50;33.38;100258.06;4454349;32;33897;-81
2022/08/09 11:16:56;;;;;;;;;;;;;;;31.84;34.64;100266.47;4443337;32;34026;-81
2022/08/09 11:19:45;;;;;;;;;;;;;;;32.17;32.60;100260.47;4440964;32;34178;-82
2022/08/09 11:22:40;;;;;;;;;;;;;;;31.97;32.44;100251.25;4448727;32;33735;-81
2022/08/09 11:25:09;;;;;;;;;;;;;;;31.09;34.14;100255.81;4451976;32;33607;-82
2022/08/09 11:27:47;;;;;;;;;;;;;;;31.21;34.10;100261.66;4440911;32;34924;-82
2022/08/09 11:30:36;;;;;;;;;;;;;;;31.71;32.50;100259.97;4430769;32;31840;-82
2022/08/09 11:33:17;;;;;;;;;;;;;;;31.95;32.22;100250.59;4442242;32;34770;-81
2022/08/09 11:35:55;;;;;;;;;;;;;;;31.73;32.25;100257.91;4452797;32;32915;-81
2022/08/09 11:38:30;;;;;;;;;;;;;;;31.54;33.21;100252.03;4440945;32;32618;-81
2022/08/09 11:41:12;;;;;;;;;;;;;;;31.79;33.51;100254.41;4429514;32;33943;-81
2022/08/09 11:43:48;;;;;;;;;;;;;;;32.24;34.29;100250.47;4442890;32;34792;-81
2022/08/09 11:46:24;;;;;;;;;;;;;;;32.92;30.61;100244.50;4439147;32;33914;-81
2022/08/09 11:49:06;;;;;;;;;;;;;;;32.53;30.84;100245.91;4454036;32;34850;-81
2022/08/09 11:52:01;;;;;;;;;;;;;;;31.95;30.86;100240.50;4427949;32;32784;-81
2022/08/09 11:55:08;;;;;;;;;;;;;;;31.96;31.73;100235.94;4434873;32;34591;-81
2022/08/09 11:57:38;;;;;;;;;;;;;;;31.97;30.96;100243.06;4446065;32;34094;-81
2022/08/09 12:00:28;;;;;;;;;;;;;;;31.84;31.50;100247.34;4454513;32;34416;-81
2022/08/09 12:02:59;;;;;;;;;;;;;;;31.79;31.60;100249.78;4428252;32;32322;-81
2022/08/09 12:05:51;;;;;;;;;;;;;;;31.66;32.49;100237.88;4443459;32;33490;-81
2022/08/09 12:08:23;;;;;;;;;;;;;;;32.11;31.57;100237.53;4441291;32;34175;-81
2022/08/09 12:10:59;;;;;;;;;;;;;;;32.33;30.36;100235.62;4442172;32;34925;-81
2022/08/09 12:13:36;;;;;;;;;;;;;;;32.23;31.18;100245.19;4426752;32;33260;-81
2022/08/09 12:16:27;;;;;;;;;;;;;;;32.20;31.05;100230.03;4448719;32;34107;-81
2022/08/09 12:19:07;;;;;;;;;;;;;;;32.19;31.33;100233.81;4434507;32;34084;-81
2022/08/09 12:21:41;;;;;;;;;;;;;;;32.05;32.02;100229.28;4438331;32;34235;-81
2022/08/09 12:24:22;;;;;;;;;;;;;;;31.90;31.21;100229.34;4442262;32;33193;-82
2022/08/09 12:26:58;;;;;;;;;;;;;;;31.87;32.13;100227.84;4441307;32;32923;-82
2022/08/09 12:29:58;;;;;;;;;;;;;;;31.37;33.52;100226.84;4444292;32;33965;-81
2022/08/09 12:32:47;;;;;;;;;;;;;;;31.63;33.00;100225.47;4442436;32;33750;-81
2022/08/09 12:35:25;;;;;;;;;;;;;;;31.71;31.72;100214.41;4441802;32;32938;-81
2022/08/09 12:37:55;;;;;;;;;;;;;;;31.82;31.76;100211.22;4442940;32;32829;-81
2022/08/09 12:40:26;;;;;;;;;;;;;;;31.86;31.90;100220.72;4441160;32;34257;-81
2022/08/09 12:42:54;;;;;;;;;;;;;;;31.70;31.04;100218.19;4436087;32;34174;-81
2022/08/09 12:45:23;;;;;;;;;;;;;;;31.68;32.16;100219.44;4427424;32;32831;-82
2022/08/09 12:48:09;;;;;;;;;;;;;;;31.69;32.54;100212.94;4437898;32;34719;-81
2022/08/09 12:51:09;;;;;;;;;;;;;;;31.13;34.12;100216.22;4428184;32;34103;-81
2022/08/09 12:53:41;;;;;;;;;;;;;;;31.42;33.15;100220.81;4436654;32;34444;-82
2022/08/09 12:56:20;;;;;;;;;;;;;;;31.37;35.65;100215.94;4426323;32;32626;-81
2022/08/09 12:59:11;;;;;;;;;;;;;;;31.01;34.22;100212.31;4407230;32;32926;-82
2022/08/09 13:01:46;;;;;;;;;;;;;;;31.63;33.51;100214.56;4428778;32;35108;-81
2022/08/09 13:04:18;;;;;;;;;;;;;;;31.47;33.73;100206.59;4420972;32;34131;-81
2022/08/09 13:07:22;;;;;;;;;;;;;;;31.39;34.25;100206.72;4436193;32;33481;-81
2022/08/09 13:10:18;;;;;;;;;;;;;;;31.60;33.98;100201.28;4424893;32;34960;-81
2022/08/09 13:16:11;;;;;;;;;;;;;;;31.73;32.83;100206.87;4436061;32;34355;-81
2022/08/09 13:21:26;;;;;;;;;;;;;;;31.51;32.66;100197.81;4421442;32;34487;-81
2022/08/09 13:24:15;;;;;;;;;;;;;;;31.69;33.66;100197.38;4437268;32;34137;-81
2022/08/09 13:27:28;;;;;;;;;;;;;;;31.55;35.34;100199.13;4436264;32;34956;-81
2022/08/09 13:30:18;;;;;;;;;;;;;;;31.68;35.47;100203.91;4438512;32;33463;-81
2022/08/09 13:33:07;;;;;;;;;;;;;;;31.60;34.31;100201.28;4432029;32;33507;-81
2022/08/09 13:35:46;;;;;;;;;;;;;;;31.92;32.65;100193.66;4432311;32;33976;-81
2022/08/09 13:38:35;;;;;;;;;;;;;;;31.96;32.22;100200.41;4421404;32;33851;-81
2022/08/09 13:41:26;;;;;;;;;;;;;;;31.90;32.49;100198.44;4425067;32;33167;-81
2022/08/09 13:44:02;;;;;;;;;;;;;;;31.82;32.72;100200.28;4404136;32;34295;-81